createdAt,value
2022-10-07T00:01:50.922Z,70.05
2022-10-07T00:04:20.569Z,69.57
2022-10-07T00:06:50.303Z,69.57
2022-10-07T00:09:20.399Z,70.04
2022-10-07T00:11:50.123Z,69.63
2022-10-07T00:14:19.879Z,69.95
2022-10-07T00:16:49.701Z,70.02
2022-10-07T00:19:19.482Z,70.23
2022-10-07T00:21:49.535Z,70.71
2022-10-07T00:24:19.065Z,70.45
2022-10-07T00:26:48.801Z,70.97
2022-10-07T00:29:18.597Z,71.28
2022-10-07T00:31:48.353Z,71.45
2022-10-07T00:34:18.048Z,71.22
2022-10-07T00:36:49.701Z,71.19
2022-10-07T00:39:19.784Z,71.23
2022-10-07T00:41:51.759Z,71.68
2022-10-07T00:44:44.705Z,71.88
2022-10-07T00:47:32.165Z,71.83
2022-10-07T00:50:04.949Z,71.16
2022-10-07T00:52:38.142Z,71.79
2022-10-07T00:55:11.042Z,71.60
2022-10-07T00:57:42.225Z,71.58
2022-10-07T01:00:13.214Z,72.19
2022-10-07T01:02:43.437Z,72.17
2022-10-07T01:05:14.199Z,72.14
2022-10-07T01:07:48.333Z,71.93
2022-10-07T01:10:21.886Z,72.65
2022-10-07T01:13:09.373Z,72.63
2022-10-07T01:15:44.864Z,72.63
2022-10-07T01:18:26.165Z,72.53
2022-10-07T01:21:07.484Z,72.53
2022-10-07T01:23:40.269Z,72.71
2022-10-07T01:26:15.776Z,72.80
2022-10-07T01:28:56.668Z,72.80
2022-10-07T01:31:32.247Z,72.81
2022-10-07T01:34:04.433Z,72.87
2022-10-07T01:36:37.010Z,72.32
2022-10-07T01:39:12.438Z,73.08
2022-10-07T01:41:42.854Z,73.06
2022-10-07T01:44:14.646Z,73.26
2022-10-07T01:46:45.190Z,73.26
2022-10-07T01:49:15.029Z,73.18
2022-10-07T01:51:49.506Z,73.46
2022-10-07T01:54:24.803Z,73.62
2022-10-07T01:57:10.737Z,73.73
2022-10-07T01:59:50.568Z,73.82
2022-10-07T02:02:24.297Z,73.84
2022-10-07T02:05:18.739Z,74.16
2022-10-07T02:08:16.491Z,73.49
2022-10-07T02:10:51.980Z,74.39
2022-10-07T02:13:44.664Z,74.24
2022-10-07T02:16:36.859Z,74.61
2022-10-07T02:19:09.717Z,74.24
2022-10-07T02:21:40.084Z,74.43
2022-10-07T02:24:12.150Z,74.39
2022-10-07T02:26:44.197Z,74.29
2022-10-07T02:29:17.589Z,74.07
2022-10-07T02:31:50.657Z,74.42
2022-10-07T02:34:23.927Z,74.42
2022-10-07T02:36:57.718Z,74.43
2022-10-07T02:39:29.763Z,74.01
2022-10-07T02:42:11.436Z,74.50
2022-10-07T02:44:46.957Z,74.79
2022-10-07T02:47:22.422Z,74.32
2022-10-07T02:49:53.800Z,75.11
2022-10-07T02:52:25.052Z,75.06
2022-10-07T02:55:00.823Z,75.52
2022-10-07T02:57:33.985Z,75.04
2022-10-07T03:00:11.129Z,75.15
2022-10-07T03:02:46.930Z,75.42
2022-10-07T03:05:21.368Z,75.62
2022-10-07T03:07:54.522Z,75.62
2022-10-07T03:10:26.121Z,75.49
2022-10-07T03:12:56.471Z,75.49
2022-10-07T03:15:27.653Z,76.71
2022-10-07T03:17:59.026Z,75.93
2022-10-07T03:20:30.679Z,75.46
2022-10-07T03:25:27.560Z,76.07
2022-10-07T03:27:58.175Z,76.15
2022-10-07T03:30:28.948Z,75.97
2022-10-07T03:32:59.223Z,76.04
2022-10-07T03:35:30.256Z,75.85
2022-10-07T03:38:00.058Z,75.44
2022-10-07T03:40:29.888Z,76.03
2022-10-07T03:42:59.788Z,76.51
2022-10-07T03:45:32.911Z,76.58
2022-10-07T03:48:02.675Z,77.28
2022-10-07T03:50:32.488Z,77.09
2022-10-07T03:53:02.310Z,75.82
2022-10-07T03:55:32.392Z,76.08
2022-10-07T03:58:02.788Z,76.10
2022-10-07T04:00:33.503Z,76.08
2022-10-07T04:03:03.530Z,75.79
2022-10-07T04:05:33.296Z,76.33
2022-10-07T04:08:04.762Z,75.77
2022-10-07T04:10:35.096Z,76.02
2022-10-07T04:13:05.582Z,76.03
2022-10-07T04:15:36.883Z,75.76
2022-10-07T04:18:07.969Z,76.71
2022-10-07T04:20:39.550Z,76.10
2022-10-07T04:23:10.723Z,75.91
2022-10-07T04:25:45.542Z,75.80
2022-10-07T04:28:20.231Z,76.94
2022-10-07T04:30:52.108Z,76.94
2022-10-07T04:33:25.009Z,76.34
2022-10-07T04:35:56.229Z,77.15
2022-10-07T04:38:28.511Z,78.00
2022-10-07T04:41:01.475Z,78.00
2022-10-07T04:43:33.002Z,77.89
2022-10-07T04:46:14.008Z,77.66
2022-10-07T04:48:46.538Z,77.65
2022-10-07T04:51:18.324Z,77.63
2022-10-07T04:53:56.488Z,77.53
2022-10-07T04:59:17.259Z,77.70
2022-10-07T05:01:47.212Z,78.18
2022-10-07T05:04:17.049Z,78.18
2022-10-07T05:06:47.310Z,77.15
2022-10-07T05:09:17.195Z,77.73
2022-10-07T05:11:48.967Z,77.35
2022-10-07T05:14:22.089Z,77.68
2022-10-07T05:16:53.946Z,77.85
2022-10-07T05:19:25.919Z,77.96
2022-10-07T05:21:55.995Z,76.95
2022-10-07T05:24:27.013Z,77.86
2022-10-07T05:26:56.918Z,77.33
2022-10-07T05:29:26.765Z,78.34
2022-10-07T05:32:03.946Z,78.50
2022-10-07T05:34:30.659Z,78.50
2022-10-07T05:37:01.196Z,77.88
2022-10-07T05:39:31.003Z,78.14
2022-10-07T05:42:02.552Z,77.22
2022-10-07T05:44:34.006Z,77.75
2022-10-07T05:47:04.577Z,77.58
2022-10-07T05:49:35.947Z,77.16
2022-10-07T05:52:08.045Z,77.10
2022-10-07T05:54:38.187Z,77.10
2022-10-07T05:57:08.004Z,77.11
2022-10-07T05:59:37.745Z,77.27
2022-10-07T06:02:15.436Z,77.09
2022-10-07T06:04:47.315Z,77.46
2022-10-07T06:07:21.361Z,77.34
2022-10-07T06:10:07.351Z,77.44
2022-10-07T06:12:56.570Z,77.01
2022-10-07T06:15:26.458Z,77.19
2022-10-07T06:17:56.472Z,77.19
2022-10-07T06:20:26.543Z,76.72
2022-10-07T06:22:58.106Z,76.87
2022-10-07T06:25:28.495Z,76.92
2022-10-07T06:28:00.367Z,75.89
2022-10-07T06:30:30.904Z,75.89
2022-10-07T06:33:02.100Z,76.20
2022-10-07T06:35:32.274Z,75.79
2022-10-07T06:38:02.079Z,75.62
2022-10-07T06:40:32.005Z,75.25
2022-10-07T06:43:02.099Z,75.15
2022-10-07T06:45:34.791Z,75.15
2022-10-07T06:48:06.206Z,75.20
2022-10-07T06:50:36.398Z,75.47
2022-10-07T06:53:06.636Z,75.33
2022-10-07T06:55:37.725Z,75.61
2022-10-07T06:58:11.817Z,75.59
2022-10-07T07:00:41.739Z,75.77
2022-10-07T07:03:12.227Z,75.25
2022-10-07T07:05:45.316Z,75.25
2022-10-07T07:08:17.092Z,74.73
2022-10-07T07:10:47.179Z,74.32
2022-10-07T07:13:18.343Z,74.30
2022-10-07T07:15:59.704Z,74.12
2022-10-07T07:18:31.219Z,73.47
2022-10-07T07:21:06.271Z,73.29
2022-10-07T07:23:36.186Z,72.45
2022-10-07T07:26:08.194Z,71.49
2022-10-07T07:28:38.593Z,71.18
2022-10-07T07:31:11.002Z,71.45
2022-10-07T07:33:41.588Z,70.84
2022-10-07T07:36:15.942Z,70.69
2022-10-07T07:38:59.252Z,69.78
2022-10-07T07:41:34.899Z,69.55
2022-10-07T07:44:09.257Z,69.48
2022-10-07T07:46:43.040Z,69.26
2022-10-07T07:49:14.155Z,68.83
2022-10-07T07:51:45.026Z,69.53
2022-10-07T07:54:16.825Z,69.48
2022-10-07T07:56:47.655Z,68.89
2022-10-07T07:59:17.569Z,68.69
2022-10-07T08:01:47.946Z,68.79
2022-10-07T08:04:18.029Z,68.66
2022-10-07T08:06:47.765Z,68.21
2022-10-07T08:09:17.769Z,67.59
2022-10-07T08:11:48.436Z,67.35
2022-10-07T08:14:18.979Z,67.80
2022-10-07T08:16:51.568Z,66.64
2022-10-07T08:19:21.649Z,67.05
2022-10-07T08:21:52.241Z,67.01
2022-10-07T08:24:25.324Z,66.26
2022-10-07T08:26:55.779Z,66.23
2022-10-07T08:29:25.951Z,65.95
2022-10-07T08:31:55.990Z,66.47
2022-10-07T08:34:25.649Z,65.67
2022-10-07T08:36:56.153Z,65.76
2022-10-07T08:39:27.773Z,65.48
2022-10-07T08:42:00.596Z,64.67
2022-10-07T08:44:39.182Z,64.78
2022-10-07T08:47:17.747Z,64.37
2022-10-07T08:50:09.683Z,63.54
2022-10-07T08:52:54.135Z,64.00
2022-10-07T08:55:41.614Z,62.98
2022-10-07T08:58:18.451Z,62.81
2022-10-07T09:01:07.413Z,62.47
2022-10-07T09:04:11.919Z,62.79
2022-10-07T09:06:47.538Z,61.17
2022-10-07T09:09:20.640Z,60.20
2022-10-07T09:11:53.028Z,60.20
2022-10-07T09:14:40.520Z,59.26
2022-10-07T09:17:13.592Z,57.41
2022-10-07T09:19:51.031Z,57.41
2022-10-07T09:22:23.574Z,56.50
2022-10-07T09:24:56.697Z,56.02
2022-10-07T09:27:26.739Z,56.02
2022-10-07T09:29:57.154Z,54.69
2022-10-07T09:32:26.693Z,54.44
2022-10-07T09:34:56.255Z,55.81
2022-10-07T09:37:27.796Z,54.51
2022-10-07T09:40:00.603Z,54.01
2022-10-07T09:42:33.136Z,54.11
2022-10-07T09:45:05.876Z,54.35
2022-10-07T09:47:40.425Z,54.35
2022-10-07T09:50:31.716Z,54.35
2022-10-07T09:53:02.929Z,54.03
2022-10-07T09:55:37.358Z,52.83
2022-10-07T09:58:21.684Z,52.45
2022-10-07T10:00:54.364Z,52.45
2022-10-07T10:03:35.461Z,52.15
2022-10-07T10:06:09.935Z,51.31
2022-10-07T10:08:42.901Z,51.33
2022-10-07T10:11:25.724Z,50.34
2022-10-07T10:13:56.016Z,49.36
2022-10-07T10:16:36.383Z,49.59
2022-10-07T10:19:24.341Z,49.35
2022-10-07T10:21:56.180Z,49.08
2022-10-07T10:24:45.755Z,49.84
2022-10-07T10:27:30.238Z,49.40
2022-10-07T10:30:05.263Z,48.56
2022-10-07T10:32:57.254Z,49.00
2022-10-07T10:35:31.811Z,48.61
2022-10-07T10:38:21.457Z,47.90
2022-10-07T10:41:16.535Z,47.24
2022-10-07T10:44:06.902Z,47.88
2022-10-07T10:46:52.179Z,48.54
2022-10-07T10:49:30.850Z,48.17
2022-10-07T10:52:21.811Z,48.15
2022-10-07T10:55:13.561Z,48.17
2022-10-07T10:57:49.373Z,47.98
2022-10-07T11:00:21.327Z,48.09
2022-10-07T11:03:16.625Z,47.93
2022-10-07T11:05:48.089Z,48.09
2022-10-07T11:08:23.171Z,47.37
2022-10-07T11:11:01.134Z,46.03
2022-10-07T11:13:43.970Z,46.35
2022-10-07T11:16:19.456Z,46.69
2022-10-07T11:18:57.498Z,47.07
2022-10-07T11:21:33.068Z,47.27
2022-10-07T11:24:05.568Z,46.79
2022-10-07T11:26:46.891Z,46.67
2022-10-07T11:29:40.320Z,46.32
2022-10-07T11:32:15.555Z,46.55
2022-10-07T11:35:10.675Z,46.07
2022-10-07T11:37:43.205Z,46.01
2022-10-07T11:40:16.403Z,45.51
2022-10-07T11:42:49.902Z,45.66
2022-10-07T11:45:22.682Z,45.56
2022-10-07T11:48:07.379Z,45.03
2022-10-07T11:50:51.762Z,45.21
2022-10-07T11:53:25.107Z,45.11
2022-10-07T11:56:06.815Z,45.14
2022-10-07T11:58:39.563Z,45.08
2022-10-07T12:01:30.532Z,43.95
2022-10-07T12:04:19.877Z,43.95
2022-10-07T12:07:25.369Z,44.07
2022-10-07T12:09:57.585Z,43.80
2022-10-07T12:12:29.231Z,43.21
2022-10-07T12:15:03.704Z,43.33
2022-10-07T12:17:33.465Z,43.03
2022-10-07T12:20:31.690Z,42.34
2022-10-07T12:23:22.446Z,42.50
2022-10-07T12:26:25.963Z,42.68
2022-10-07T12:28:57.248Z,42.92
2022-10-07T12:31:35.626Z,42.78
2022-10-07T12:34:09.835Z,42.35
2022-10-07T12:36:41.191Z,42.31
2022-10-07T12:39:14.045Z,42.66
2022-10-07T12:41:46.614Z,42.33
2022-10-07T12:44:36.367Z,42.83
2022-10-07T12:47:18.280Z,41.94
2022-10-07T12:49:56.780Z,41.94
2022-10-07T12:52:34.959Z,42.37
2022-10-07T12:55:11.013Z,42.58
2022-10-07T12:57:41.570Z,42.61
2022-10-07T13:00:18.414Z,42.26
2022-10-07T13:02:53.895Z,41.99
2022-10-07T13:05:38.254Z,43.05
2022-10-07T13:08:12.822Z,43.35
2022-10-07T13:10:49.143Z,43.80
2022-10-07T13:13:29.109Z,42.69
2022-10-07T13:16:01.983Z,42.72
2022-10-07T13:18:43.309Z,42.66
2022-10-07T13:21:24.997Z,42.40
2022-10-07T13:23:56.784Z,43.48
2022-10-07T13:26:27.717Z,42.77
2022-10-07T13:29:00.287Z,42.87
2022-10-07T13:31:34.130Z,42.90
2022-10-07T13:34:08.005Z,42.33
2022-10-07T13:36:44.739Z,42.85
2022-10-07T13:39:22.845Z,42.66
2022-10-07T13:42:02.308Z,42.63
2022-10-07T13:44:33.488Z,42.57
2022-10-07T13:47:05.863Z,42.40
2022-10-07T13:49:38.871Z,43.22
2022-10-07T13:52:17.195Z,43.48
2022-10-07T13:54:52.344Z,43.51
2022-10-07T13:57:23.486Z,44.36
2022-10-07T13:59:53.568Z,44.85
2022-10-07T14:02:23.641Z,44.39
2022-10-07T14:05:02.040Z,43.71
2022-10-07T14:07:32.226Z,43.48
2022-10-07T14:10:06.638Z,43.48
2022-10-07T14:12:39.938Z,42.58
2022-10-07T14:15:19.537Z,42.68
2022-10-07T14:17:53.818Z,43.32
2022-10-07T14:20:32.123Z,43.34
2022-10-07T14:23:10.554Z,43.64
2022-10-07T14:25:55.017Z,43.64
2022-10-07T14:28:30.366Z,43.96
2022-10-07T14:31:29.793Z,44.01
2022-10-07T14:34:37.382Z,43.21
2022-10-07T14:37:21.672Z,42.96
2022-10-07T14:39:53.996Z,44.84
2022-10-07T14:42:30.223Z,44.54
2022-10-07T14:45:01.249Z,45.03
2022-10-07T14:47:33.553Z,44.77
2022-10-07T14:50:04.901Z,44.44
2022-10-07T14:52:44.484Z,44.44
2022-10-07T14:55:20.126Z,44.08
2022-10-07T14:57:49.876Z,44.78
2022-10-07T15:00:24.823Z,44.73
2022-10-07T15:02:54.677Z,44.99
2022-10-07T15:05:26.223Z,44.62
2022-10-07T15:07:56.000Z,44.62
2022-10-07T15:10:26.669Z,45.16
2022-10-07T15:12:57.627Z,44.38
2022-10-07T15:15:27.426Z,44.78
2022-10-07T15:17:57.156Z,44.89
2022-10-07T15:20:27.358Z,45.61
2022-10-07T15:22:57.411Z,45.56
2022-10-07T15:25:27.145Z,45.94
2022-10-07T15:27:56.880Z,45.97
2022-10-07T15:30:26.789Z,45.53
2022-10-07T15:32:57.778Z,46.47
2022-10-07T15:35:27.908Z,46.36
2022-10-07T15:37:57.666Z,46.90
2022-10-07T15:40:27.131Z,46.76
2022-10-07T15:42:58.204Z,47.05
2022-10-07T15:45:27.990Z,47.09
2022-10-07T15:48:00.475Z,48.09
2022-10-07T15:50:29.763Z,47.30
2022-10-07T15:52:59.504Z,47.30
2022-10-07T15:55:29.427Z,48.65
2022-10-07T15:57:59.138Z,48.43
2022-10-07T16:00:29.504Z,48.43
2022-10-07T16:03:01.259Z,48.20
2022-10-07T16:05:31.297Z,48.75
2022-10-07T16:08:02.687Z,48.44
2022-10-07T16:10:33.688Z,48.59
2022-10-07T16:13:03.840Z,49.29
2022-10-07T16:15:34.884Z,49.36
2022-10-07T16:18:06.533Z,50.03
2022-10-07T16:20:40.708Z,49.83
2022-10-07T16:23:10.183Z,50.22
2022-10-07T16:25:39.924Z,49.99
2022-10-07T16:28:28.279Z,50.61
2022-10-07T16:30:58.127Z,50.36
2022-10-07T16:33:27.861Z,50.65
2022-10-07T16:35:58.329Z,51.27
2022-10-07T16:38:27.818Z,51.49
2022-10-07T16:40:57.855Z,51.92
2022-10-07T16:43:27.598Z,51.85
2022-10-07T16:45:58.909Z,52.32
2022-10-07T16:48:28.602Z,52.56
2022-10-07T16:50:59.289Z,52.90
2022-10-07T16:53:29.022Z,53.56
2022-10-07T16:56:04.648Z,53.54
2022-10-07T16:58:35.229Z,53.66
2022-10-07T17:01:07.190Z,54.29
2022-10-07T17:03:38.357Z,54.13
2022-10-07T17:06:13.030Z,54.59
2022-10-07T17:08:48.040Z,54.84
2022-10-07T17:11:30.208Z,55.26
2022-10-07T17:14:02.730Z,55.42
2022-10-07T17:16:38.726Z,55.11
2022-10-07T17:19:08.733Z,55.57
2022-10-07T17:21:40.650Z,56.00
2022-10-07T17:24:13.017Z,56.00
2022-10-07T17:26:43.287Z,55.83
2022-10-07T17:29:16.356Z,55.83
2022-10-07T17:31:48.251Z,55.86
2022-10-07T17:34:19.714Z,55.99
2022-10-07T17:36:50.422Z,56.06
2022-10-07T17:39:20.601Z,56.94
2022-10-07T17:41:50.408Z,57.01
2022-10-07T17:44:21.354Z,57.08
2022-10-07T17:46:51.200Z,57.78
2022-10-07T17:49:20.775Z,58.29
2022-10-07T17:51:50.517Z,58.32
2022-10-07T17:54:20.256Z,58.18
2022-10-07T17:56:50.349Z,58.18
2022-10-07T17:59:20.097Z,58.48
2022-10-07T18:01:49.830Z,58.55
2022-10-07T18:04:24.602Z,58.42
2022-10-07T18:06:51.184Z,59.25
2022-10-07T18:09:22.721Z,58.73
2022-10-07T18:12:08.582Z,58.60
2022-10-07T18:14:55.838Z,58.87
2022-10-07T18:17:25.573Z,58.87
2022-10-07T18:19:55.603Z,59.41
2022-10-07T18:22:25.392Z,59.08
2022-10-07T18:24:56.744Z,59.37
2022-10-07T18:27:27.074Z,59.60
2022-10-07T18:29:56.883Z,59.60
2022-10-07T18:32:26.312Z,59.81
2022-10-07T18:34:56.094Z,59.41
2022-10-07T18:37:25.907Z,59.85
2022-10-07T18:39:55.662Z,59.98
2022-10-07T18:42:25.418Z,59.98
2022-10-07T18:44:55.240Z,59.85
2022-10-07T18:47:24.995Z,60.21
2022-10-07T18:49:56.396Z,60.31
2022-10-07T18:52:26.452Z,60.92
2022-10-07T18:54:56.187Z,60.53
2022-10-07T18:57:25.997Z,60.69
2022-10-07T18:59:55.741Z,60.36
2022-10-07T19:02:25.573Z,60.77
2022-10-07T19:04:56.111Z,61.18
2022-10-07T19:07:25.916Z,61.00
2022-10-07T19:09:55.664Z,61.02
2022-10-07T19:12:38.825Z,60.85
2022-10-07T19:15:09.424Z,61.23
2022-10-07T19:17:39.207Z,61.64
2022-10-07T19:20:11.176Z,61.53
2022-10-07T19:22:40.934Z,61.25
2022-10-07T19:25:28.388Z,61.35
2022-10-07T19:27:58.098Z,61.86
2022-10-07T19:30:28.218Z,61.92
2022-10-07T19:32:58.016Z,61.83
2022-10-07T19:35:28.610Z,61.60
2022-10-07T19:37:58.348Z,61.69
2022-10-07T19:40:28.026Z,61.42
2022-10-07T19:42:57.791Z,61.54
2022-10-07T19:45:27.298Z,61.74
2022-10-07T19:47:57.059Z,61.44
2022-10-07T19:50:26.794Z,61.46
2022-10-07T19:52:57.002Z,61.49
2022-10-07T19:55:29.340Z,62.01
2022-10-07T19:58:00.428Z,62.21
2022-10-07T20:00:31.655Z,62.43
2022-10-07T20:03:01.126Z,62.67
2022-10-07T20:05:31.486Z,62.72
2022-10-07T20:08:01.821Z,62.43
2022-10-07T20:10:31.585Z,62.66
2022-10-07T20:13:01.641Z,62.44
2022-10-07T20:15:31.453Z,62.65
2022-10-07T20:18:03.149Z,62.44
2022-10-07T20:20:33.962Z,62.44
2022-10-07T20:23:03.705Z,62.67
2022-10-07T20:25:33.442Z,62.71
2022-10-07T20:28:03.325Z,63.14
2022-10-07T20:30:34.290Z,62.52
2022-10-07T20:33:05.737Z,62.90
2022-10-07T20:35:35.774Z,63.15
2022-10-07T20:38:06.710Z,63.48
2022-10-07T20:40:53.991Z,63.45
2022-10-07T20:43:24.061Z,63.43
2022-10-07T20:45:57.762Z,63.64
2022-10-07T20:48:29.326Z,63.50
2022-10-07T20:51:07.995Z,63.04
2022-10-07T20:53:37.782Z,63.47
2022-10-07T20:56:09.993Z,63.52
2022-10-07T20:58:39.875Z,63.67
2022-10-07T21:01:09.994Z,63.75
2022-10-07T21:03:40.064Z,63.91
2022-10-07T21:06:11.804Z,63.53
2022-10-07T21:08:41.565Z,63.46
2022-10-07T21:11:11.343Z,63.85
2022-10-07T21:13:41.139Z,63.85
2022-10-07T21:16:11.972Z,64.07
2022-10-07T21:18:41.796Z,64.29
2022-10-07T21:21:11.605Z,64.29
2022-10-07T21:23:41.368Z,64.64
2022-10-07T21:26:11.876Z,63.73
2022-10-07T21:28:41.697Z,63.78
2022-10-07T21:31:17.433Z,64.49
2022-10-07T21:33:49.640Z,64.77
2022-10-07T21:36:22.647Z,64.22
2022-10-07T21:38:58.583Z,63.92
2022-10-07T21:41:38.452Z,64.48
2022-10-07T21:44:12.865Z,64.54
2022-10-07T21:46:44.457Z,64.37
2022-10-07T21:49:15.448Z,64.29
2022-10-07T21:51:45.547Z,65.09
2022-10-07T21:54:15.596Z,64.93
2022-10-07T21:56:46.353Z,65.50
2022-10-07T21:59:16.157Z,65.07
2022-10-07T22:01:46.277Z,65.26
2022-10-07T22:04:19.630Z,64.91
2022-10-07T22:07:07.016Z,64.96
2022-10-07T22:09:36.772Z,65.13
2022-10-07T22:12:08.837Z,65.13
2022-10-07T22:14:39.409Z,64.91
2022-10-07T22:17:09.895Z,65.27
2022-10-07T22:19:39.699Z,65.19
2022-10-07T22:22:12.995Z,65.26
2022-10-07T22:24:42.748Z,65.40
2022-10-07T22:27:12.492Z,65.36
2022-10-07T22:29:42.416Z,66.02
2022-10-07T22:32:12.212Z,65.91
2022-10-07T22:34:59.361Z,65.41
2022-10-07T22:37:29.323Z,64.73
2022-10-07T22:39:59.310Z,64.25
2022-10-07T22:42:29.049Z,64.68
2022-10-07T22:44:58.810Z,65.24
2022-10-07T22:47:29.014Z,65.04
2022-10-07T22:49:58.765Z,64.63
2022-10-07T22:52:29.170Z,64.15
2022-10-07T22:54:59.025Z,64.14
2022-10-07T22:57:28.824Z,64.40
2022-10-07T23:00:00.490Z,64.31
2022-10-07T23:02:30.656Z,64.50
2022-10-07T23:05:01.398Z,64.74
2022-10-07T23:07:31.150Z,64.72
2022-10-07T23:10:00.973Z,64.98
2022-10-07T23:12:30.779Z,65.05
2022-10-07T23:15:00.270Z,65.32
2022-10-07T23:17:31.097Z,65.07
2022-10-07T23:20:01.122Z,64.74
2022-10-07T23:22:30.846Z,65.66
2022-10-07T23:25:02.377Z,65.66
2022-10-07T23:27:32.109Z,65.31
2022-10-07T23:30:02.627Z,66.03
2022-10-07T23:32:32.443Z,65.66
2022-10-07T23:35:02.195Z,66.17
2022-10-07T23:37:31.950Z,66.25
2022-10-07T23:40:01.698Z,66.01
2022-10-07T23:42:31.444Z,66.65
2022-10-07T23:45:01.460Z,66.65
2022-10-07T23:47:31.501Z,66.28
2022-10-07T23:50:01.542Z,65.88
2022-10-07T23:52:31.489Z,65.59
2022-10-07T23:55:01.294Z,66.32
2022-10-07T23:57:31.089Z,65.20
